Time;durP1;ratioP1;P1;durP2;ratioP2;P2;SDS_P1;SDS_P2;PMS_P1;PMS_P2;Temp;Humidity;BMP_temperature;BMP_pressure;BME280_temperature;BME280_humidity;BME280_pressure;Samples;Min_cycle;Max_cycle;Signal;HPM_P1;HPM_P2
2021/11/27 00:01:19;;;;;;;4.68;2.67;;;;;;;-11.19;93.52;100188.47;5074154;28;20011;-65
2021/11/27 00:03:46;;;;;;;3.83;2.70;;;;;;;-10.95;90.44;100187.31;5074173;28;20135;-65
2021/11/27 00:06:13;;;;;;;8.75;3.13;;;;;;;-11.09;86.80;100188.69;5074374;28;20059;-65
2021/11/27 00:08:40;;;;;;;3.67;2.33;;;;;;;-11.45;87.09;100197.88;5073930;28;20076;-65
2021/11/27 00:11:09;;;;;;;2.15;1.85;;;;;;;-11.64;88.09;100200.72;5073974;28;20048;-65
2021/11/27 00:13:36;;;;;;;5.00;2.60;;;;;;;-11.78;88.19;100212.94;5073791;28;20087;-65
2021/11/27 00:16:03;;;;;;;6.60;2.67;;;;;;;-11.98;88.60;100202.38;5073824;28;20048;-65
2021/11/27 00:18:30;;;;;;;;;;;;;;;-12.18;89.65;100213.53;5073772;28;20055;-65
2021/11/27 00:21:01;;;;;;;2.58;1.88;;;;;;;-12.12;88.94;100211.22;5074015;28;19920;-65
2021/11/27 00:23:31;;;;;;;1.90;1.77;;;;;;;-12.02;89.91;100215.66;5073824;28;20044;-65
2021/11/27 00:25:59;;;;;;;3.85;2.00;;;;;;;-11.99;89.99;100224.94;5073953;28;20165;-66
2021/11/27 00:28:28;;;;;;;2.92;2.20;;;;;;;-11.91;90.27;100228.50;5073623;28;20139;-65
2021/11/27 00:30:58;;;;;;;2.22;2.00;;;;;;;-11.88;91.27;100238.59;5073353;28;20570;-65
2021/11/27 00:33:26;;;;;;;4.38;2.47;;;;;;;-11.85;91.61;100239.50;5073280;28;20055;-65
2021/11/27 00:35:53;;;;;;;6.50;3.15;;;;;;;-11.88;91.50;100246.13;5073522;28;20076;-65
2021/11/27 00:38:20;;;;;;;3.53;2.30;;;;;;;-11.98;92.29;100254.22;5073682;28;20135;-65
2021/11/27 00:40:47;;;;;;;4.72;3.17;;;;;;;-11.97;92.85;100260.94;5073386;28;20079;-65
2021/11/27 00:43:15;;;;;;;2.70;2.13;;;;;;;-11.88;92.86;100262.03;5073583;28;20048;-65
2021/11/27 00:45:45;;;;;;;4.97;3.08;;;;;;;-12.19;93.31;100262.84;5073355;28;20072;-65
2021/11/27 00:48:13;;;;;;;5.95;3.25;;;;;;;-12.33;94.55;100274.97;5073478;28;20048;-65
2021/11/27 00:50:44;;;;;;;5.22;2.90;;;;;;;-12.33;95.16;100269.09;5073263;28;20072;-65
2021/11/27 00:53:11;;;;;;;5.22;2.40;;;;;;;-12.36;95.06;100271.50;5073379;28;20131;-65
2021/11/27 00:55:38;;;;;;;4.55;2.72;;;;;;;-12.30;94.11;100271.72;5072861;28;20490;-66
2021/11/27 00:58:06;;;;;;;5.18;3.30;;;;;;;-12.18;93.24;100278.72;5073181;28;20075;-65
2021/11/27 01:00:36;;;;;;;3.33;2.47;;;;;;;-11.96;92.22;100270.16;5072983;28;20527;-65
2021/11/27 01:03:07;;;;;;;5.90;2.97;;;;;;;-12.27;93.53;100278.47;5072989;28;20581;-65
2021/11/27 01:05:36;;;;;;;4.25;2.70;;;;;;;-12.41;94.09;100280.56;5072969;28;20130;-65
2021/11/27 01:08:04;;;;;;;3.10;2.40;;;;;;;-12.54;93.60;100280.19;5073129;28;20079;-65
2021/11/27 01:10:32;;;;;;;;;;;;;;;-12.46;93.98;100282.06;5073323;28;20048;-65
2021/11/27 01:13:00;;;;;;;4.40;2.47;;;;;;;-12.63;94.73;100282.44;5072617;28;19920;-65
2021/11/27 01:15:31;;;;;;;7.47;2.60;;;;;;;-12.80;94.85;100283.53;5072296;28;20173;-65
2021/11/27 01:17:59;;;;;;;5.18;2.50;;;;;;;-12.84;95.38;100286.75;5072510;28;20052;-65
2021/11/27 01:20:32;;;;;;;4.15;2.30;;;;;;;-12.91;95.73;100292.38;5072619;28;20110;-65
2021/11/27 01:22:59;;;;;;;4.07;2.60;;;;;;;-12.97;95.70;100300.53;5072973;28;20437;-65
2021/11/27 01:25:27;;;;;;;4.88;2.63;;;;;;;-13.04;95.71;100293.63;5072092;28;20202;-65
2021/11/27 01:27:54;;;;;;;4.10;2.20;;;;;;;-13.12;95.69;100295.91;5072455;28;20470;-66
2021/11/27 01:30:21;;;;;;;5.60;2.38;;;;;;;-13.16;95.88;100291.56;5072263;28;20143;-64
2021/11/27 01:32:49;;;;;;;6.93;2.53;;;;;;;-13.26;95.21;100299.63;5072607;28;20532;-65
2021/11/27 01:35:16;;;;;;;3.75;2.22;;;;;;;-13.34;95.48;100306.03;5072348;28;20165;-65
2021/11/27 01:37:45;;;;;;;6.78;2.38;;;;;;;-13.45;94.66;100305.66;5072580;28;20049;-65
2021/11/27 01:40:15;;;;;;;5.38;2.65;;;;;;;-13.29;93.05;100314.53;5072524;28;20096;-66
2021/11/27 01:42:42;;;;;;;5.07;2.83;;;;;;;-13.57;92.48;100318.59;5071972;28;20044;-65
2021/11/27 01:45:10;;;;;;;;;;;;;;;-13.75;93.77;100326.28;5072692;28;20687;-65
2021/11/27 01:47:37;;;;;;;5.65;2.85;;;;;;;-13.79;94.61;100338.63;5072041;28;19920;-65
2021/11/27 01:50:06;;;;;;;3.10;1.98;;;;;;;-13.80;94.71;100336.94;5072139;28;20140;-65
2021/11/27 01:52:33;;;;;;;5.53;2.35;;;;;;;-13.66;92.96;100339.13;5071863;28;20525;-65
2021/11/27 01:55:02;;;;;;;4.60;2.90;;;;;;;-13.88;94.24;100339.16;5072026;28;20045;-65
2021/11/27 01:57:29;;;;;;;4.70;2.60;;;;;;;-13.89;95.58;100347.47;5072126;28;20372;-65
2021/11/27 01:59:58;;;;;;;4.05;2.65;;;;;;;-13.86;95.10;100350.91;5072031;28;20083;-65
2021/11/27 02:02:25;;;;;;;4.55;2.90;;;;;;;-13.83;95.24;100350.19;5072006;28;20277;-65
2021/11/27 02:04:52;;;;;;;2.63;2.22;;;;;;;-13.92;95.15;100352.31;5072351;28;20083;-65
2021/11/27 02:07:19;;;;;;;4.72;2.53;;;;;;;-13.96;94.94;100358.88;5071696;28;20499;-65
2021/11/27 02:09:48;;;;;;;4.00;2.47;;;;;;;-13.77;91.94;100362.91;5072283;28;20047;-65
2021/11/27 02:12:16;;;;;;;3.38;2.15;;;;;;;-13.85;84.87;100357.59;5071796;28;20139;-64
2021/11/27 02:14:43;;;;;;;2.83;1.60;;;;;;;-14.11;84.82;100365.81;5071886;28;20098;-64
2021/11/27 02:17:10;;;;;;;4.75;2.25;;;;;;;-14.37;85.71;100380.66;5071845;28;20086;-64
2021/11/27 02:19:38;;;;;;;1.30;1.30;;;;;;;-14.53;87.28;100378.38;5071828;28;20067;-65
2021/11/27 02:22:07;;;;;;;2.03;1.90;;;;;;;-14.81;87.91;100382.25;5071771;28;20056;-65
2021/11/27 02:24:34;;;;;;;3.58;2.20;;;;;;;-14.97;88.45;100383.28;5071852;28;20072;-65
2021/11/27 02:27:01;;;;;;;;;;;;;;;-15.23;89.74;100391.28;5072279;28;20135;-65
2021/11/27 02:29:31;;;;;;;2.65;1.65;;;;;;;-15.22;90.96;100391.38;5071782;28;20011;-66
2021/11/27 02:32:01;;;;;;;2.35;2.10;;;;;;;-15.41;91.03;100398.84;5071703;28;20141;-66
2021/11/27 02:34:28;;;;;;;2.00;1.80;;;;;;;-15.42;91.65;100402.13;5071529;28;20166;-64
2021/11/27 02:36:59;;;;;;;3.17;2.33;;;;;;;-15.38;92.17;100402.34;5071674;28;20076;-64
2021/11/27 02:39:29;;;;;;;4.30;2.50;;;;;;;-15.27;91.11;100404.44;5075397;28;20139;-65
2021/11/27 02:41:56;;;;;;;4.45;2.30;;;;;;;-15.31;88.71;100405.09;5075866;28;20135;-64
2021/11/27 02:44:25;;;;;;;2.75;2.33;;;;;;;-15.28;89.50;100403.59;5075668;28;20135;-64
2021/11/27 02:46:52;;;;;;;2.25;2.05;;;;;;;-15.27;90.87;100406.94;5075874;28;20155;-64
2021/11/27 02:49:20;;;;;;;3.92;2.70;;;;;;;-15.48;89.92;100410.22;5075404;28;20054;-64
2021/11/27 02:51:47;;;;;;;4.60;1.98;;;;;;;-15.48;90.47;100409.34;5075776;28;20048;-64
2021/11/27 02:54:15;;;;;;;4.95;3.08;;;;;;;-15.51;90.94;100406.72;5075410;28;20049;-64
2021/11/27 02:56:44;;;;;;;3.17;2.47;;;;;;;-15.51;93.90;100409.19;5075434;28;20448;-64
2021/11/27 02:59:14;;;;;;;4.43;2.90;;;;;;;-15.54;94.09;100409.06;5075440;28;20135;-64
2021/11/27 03:01:43;;;;;;;3.67;2.97;;;;;;;-15.51;93.27;100410.09;5075211;28;20139;-64
2021/11/27 03:04:11;;;;;;;4.45;3.03;;;;;;;-15.49;93.66;100417.59;5075564;28;20087;-64
2021/11/27 03:06:39;;;;;;;1.95;1.85;;;;;;;-15.19;92.27;100413.94;5075407;28;20509;-64
2021/11/27 03:09:07;;;;;;;4.32;2.38;;;;;;;-15.34;90.95;100418.28;5075392;28;20463;-64
2021/11/27 03:11:35;;;;;;;3.78;2.40;;;;;;;-15.28;88.99;100418.56;5074739;28;20083;-64
2021/11/27 03:14:04;;;;;;;2.40;2.03;;;;;;;-15.28;87.26;100423.56;5075009;28;20140;-64
2021/11/27 03:16:33;;;;;;;1.55;1.45;;;;;;;-15.36;87.94;100432.31;5074612;28;20155;-65
2021/11/27 03:19:00;;;;;;;4.78;2.63;;;;;;;-15.83;87.43;100433.59;5074765;28;20045;-64
2021/11/27 03:21:27;;;;;;;6.20;2.28;;;;;;;-15.84;87.37;100434.38;5074623;28;20526;-64
2021/11/27 03:23:54;;;;;;;3.80;2.95;;;;;;;-16.09;88.05;100433.25;5075190;28;20045;-64
2021/11/27 03:26:21;;;;;;;;;;;;;;;-16.30;88.68;100440.56;5075380;28;20052;-64
2021/11/27 03:28:49;;;;;;;2.42;2.22;;;;;;;-16.02;89.07;100440.22;5074955;28;19924;-63
2021/11/27 03:31:17;;;;;;;2.38;2.20;;;;;;;-15.81;90.13;100447.00;5074630;28;20502;-63
2021/11/27 03:33:44;;;;;;;2.10;1.67;;;;;;;-15.50;88.30;100454.19;5074711;28;20134;-63
2021/11/27 03:36:12;;;;;;;1.83;1.55;;;;;;;-15.60;89.02;100457.91;5074686;28;20512;-63
2021/11/27 03:38:38;;;;;;;;;;;;;;;-15.77;89.45;100460.44;5075037;28;20112;-63
2021/11/27 03:41:05;;;;;;;;;;;;;;;-16.02;90.67;100460.16;5075136;28;19970;-63
2021/11/27 03:43:33;;;;;;;7.88;2.58;;;;;;;-16.02;90.64;100464.31;5074245;28;19920;-63
2021/11/27 03:46:01;;;;;;;2.67;2.22;;;;;;;-16.07;91.03;100469.06;5074809;28;20076;-63
2021/11/27 03:48:33;;;;;;;7.43;2.45;;;;;;;-16.05;89.42;100469.16;5073562;28;20410;-63
2021/11/27 03:51:01;;;;;;;4.53;2.08;;;;;;;-15.82;87.15;100477.72;5074719;28;20075;-65
2021/11/27 03:53:31;;;;;;;5.72;2.85;;;;;;;-16.03;86.96;100482.50;5074397;28;20464;-65
2021/11/27 03:55:59;;;;;;;3.60;2.13;;;;;;;-16.18;88.67;100484.28;5074583;28;20135;-65
2021/11/27 03:58:26;;;;;;;3.33;2.75;;;;;;;-16.36;89.36;100485.13;5073979;28;20055;-63
2021/11/27 04:00:55;;;;;;;5.32;2.42;;;;;;;-16.48;90.91;100482.88;5074014;28;20076;-63
2021/11/27 04:03:24;;;;;;;4.78;3.28;;;;;;;-16.40;90.86;100485.75;5073780;28;20575;-63
2021/11/27 04:05:54;;;;;;;7.47;2.70;;;;;;;-16.37;90.36;100490.88;5074071;28;20498;-63
2021/11/27 04:08:22;;;;;;;4.82;3.10;;;;;;;-16.43;90.59;100492.22;5074149;28;20289;-63
2021/11/27 04:10:49;;;;;;;3.15;2.83;;;;;;;-16.15;90.17;100492.78;5074312;28;20055;-64
2021/11/27 04:13:17;;;;;;;5.10;2.88;;;;;;;-16.29;90.59;100494.59;5074137;28;20127;-63
2021/11/27 04:15:45;;;;;;;5.63;2.88;;;;;;;-16.26;91.78;100499.75;5073700;28;20091;-63
2021/11/27 04:18:12;;;;;;;4.10;2.78;;;;;;;-16.26;91.70;100496.38;5074189;28;20143;-63
2021/11/27 04:20:40;;;;;;;3.33;2.75;;;;;;;-16.32;90.73;100504.41;5073554;28;20422;-66
2021/11/27 04:23:09;;;;;;;3.28;2.42;;;;;;;-16.27;91.87;100504.63;5073986;28;20106;-63
2021/11/27 04:25:36;;;;;;;5.57;2.72;;;;;;;-16.28;90.96;100508.78;5073739;28;20470;-63
2021/11/27 04:28:03;;;;;;;;;;;;;;;-16.36;91.07;100496.69;5074107;28;20522;-63
2021/11/27 04:30:31;;;;;;;5.75;2.42;;;;;;;-16.39;90.60;100509.00;5073622;28;19924;-63
2021/11/27 04:32:59;;;;;;;4.68;2.65;;;;;;;-16.36;91.82;100516.63;5073824;28;20128;-63
2021/11/27 04:35:27;;;;;;;5.35;2.70;;;;;;;-16.35;91.76;100525.84;5073126;28;20144;-64
2021/11/27 04:37:55;;;;;;;2.90;2.60;;;;;;;-16.35;89.25;100528.31;5073593;28;20055;-64
2021/11/27 04:40:24;;;;;;;1.70;1.27;;;;;;;-16.13;83.98;100525.22;5073367;28;20081;-63
2021/11/27 04:42:51;;;;;;;3.20;1.90;;;;;;;-16.33;83.88;100532.59;5073588;28;20087;-63
2021/11/27 04:45:20;;;;;;;1.70;1.58;;;;;;;-16.51;84.13;100531.69;5073622;28;20080;-65
2021/11/27 04:47:47;;;;;;;2.47;1.73;;;;;;;-17.10;87.28;100532.88;5073186;28;20447;-65
2021/11/27 04:50:16;;;;;;;2.15;1.95;;;;;;;-17.17;88.84;100530.84;5073226;28;20140;-63
2021/11/27 04:52:43;;;;;;;1.50;1.40;;;;;;;-16.69;86.96;100532.47;5073148;28;20098;-63
2021/11/27 04:55:10;;;;;;;;;;;;;;;-16.71;84.71;100531.53;5073523;28;20135;-62
2021/11/27 04:57:39;;;;;;;1.38;1.27;;;;;;;-16.79;84.93;100536.94;5072789;28;19955;-65
2021/11/27 05:00:09;;;;;;;2.35;2.15;;;;;;;-16.80;85.68;100542.69;5072162;28;20076;-65
2021/11/27 05:02:36;;;;;;;3.03;2.72;;;;;;;-16.79;85.32;100549.41;5073090;28;20048;-65
2021/11/27 05:05:03;;;;;;;;;;;;;;;-16.82;86.13;100546.72;5073604;28;20131;-65
2021/11/27 05:07:30;;;;;;;;;;;;;;;-16.79;84.72;100541.94;5073358;28;20027;-64
2021/11/27 05:09:58;;;;;;;0.90;0.90;;;;;;;-16.91;86.27;100552.09;5073187;28;19920;-65
2021/11/27 05:12:25;;;;;;;2.05;1.95;;;;;;;-17.05;87.68;100556.38;5072340;28;20517;-64
2021/11/27 05:14:53;;;;;;;1.88;1.75;;;;;;;-16.93;87.09;100561.97;5072617;28;20080;-65
2021/11/27 05:17:20;;;;;;;1.98;1.88;;;;;;;-16.73;86.21;100560.47;5072496;28;20144;-65
2021/11/27 05:19:47;;;;;;;2.00;1.88;;;;;;;-16.75;86.03;100563.66;5072632;28;20049;-65
2021/11/27 05:22:14;;;;;;;;;;;;;;;-16.60;86.37;100566.09;5073365;28;20072;-63
2021/11/27 05:24:44;;;;;;;1.65;1.55;;;;;;;-16.54;86.33;100558.91;5072556;28;20015;-63
2021/11/27 05:27:12;;;;;;;1.90;1.80;;;;;;;-16.62;86.91;100568.50;5072717;28;20074;-62
2021/11/27 05:29:40;;;;;;;2.35;2.15;;;;;;;-16.68;87.36;100573.16;5072136;28;20598;-63
2021/11/27 05:32:20;;;;;;;3.08;2.78;;;;;;;-16.78;88.18;100576.00;5072287;28;20442;-64
2021/11/27 05:34:47;;;;;;;2.20;2.05;;;;;;;-16.67;89.48;100572.38;5072435;28;20044;-64
2021/11/27 05:37:14;;;;;;;;;;;;;;;-16.56;90.51;100587.88;5072806;28;20143;-63
2021/11/27 05:39:42;;;;;;;2.08;1.88;;;;;;;-16.43;90.89;100592.72;5072047;28;20290;-63
2021/11/27 05:42:10;;;;;;;1.77;1.67;;;;;;;-16.33;91.34;100589.06;5072528;28;20045;-63
2021/11/27 05:44:37;;;;;;;3.17;2.10;;;;;;;-16.28;90.85;100597.63;5071973;28;20143;-63
2021/11/27 05:47:04;;;;;;;;;;;;;;;-16.13;90.33;100605.84;5072844;28;20079;-63
2021/11/27 05:49:32;;;;;;;1.63;1.52;;;;;;;-15.92;88.17;100605.19;5072233;28;19963;-63
2021/11/27 05:51:59;;;;;;;1.38;1.30;;;;;;;-15.84;87.80;100603.94;5072167;28;20091;-63
2021/11/27 05:54:26;;;;;;;1.58;1.48;;;;;;;-15.88;88.59;100604.53;5072528;28;20139;-63
2021/11/27 05:56:53;;;;;;;1.52;1.42;;;;;;;-15.91;88.64;100611.88;5072388;28;20135;-63
2021/11/27 05:59:20;;;;;;;2.30;1.98;;;;;;;-15.93;88.75;100619.28;5071835;28;20058;-63
2021/11/27 06:01:47;;;;;;;1.40;1.30;;;;;;;-15.93;88.78;100629.25;5071935;28;20483;-63
2021/11/27 06:04:14;;;;;;;;;;;;;;;-15.90;88.58;100636.91;5072479;28;20479;-62
2021/11/27 06:06:42;;;;;;;1.80;1.70;;;;;;;-16.16;90.35;100637.22;5071991;28;20015;-63
2021/11/27 06:09:09;;;;;;;1.45;1.35;;;;;;;-15.92;90.04;100638.44;5072015;28;20140;-63
2021/11/27 06:11:36;;;;;;;1.48;1.40;;;;;;;-15.89;90.43;100642.72;5071518;28;20072;-63
2021/11/27 06:14:04;;;;;;;3.03;2.30;;;;;;;-16.01;90.13;100640.47;5072236;28;20132;-63
2021/11/27 06:16:30;;;;;;;;;;;;;;;-16.02;91.26;100654.59;5071874;28;20075;-63
2021/11/27 06:18:57;;;;;;;;;;;;;;;-15.59;89.75;100650.78;5072393;28;20019;-63
2021/11/27 06:21:24;;;;;;;2.05;1.83;;;;;;;-15.64;90.07;100648.09;5071617;28;20015;-63
2021/11/27 06:23:54;;;;;;;2.53;2.33;;;;;;;-15.60;89.87;100652.44;5072200;28;20136;-63
2021/11/27 06:26:21;;;;;;;1.90;1.73;;;;;;;-15.72;90.67;100658.50;5071800;28;20048;-63
2021/11/27 06:28:48;;;;;;;1.67;1.52;;;;;;;-15.68;90.17;100651.22;5071927;28;20131;-63
2021/11/27 06:31:16;;;;;;;2.08;1.75;;;;;;;-15.57;89.90;100642.59;5072113;28;20055;-63
2021/11/27 06:33:43;;;;;;;5.05;2.80;;;;;;;-15.57;89.33;100650.09;5071544;28;20131;-63
2021/11/27 06:36:10;;;;;;;3.85;2.28;;;;;;;-15.70;89.54;100656.94;5071949;28;20053;-63
2021/11/27 06:38:38;;;;;;;2.03;1.85;;;;;;;-15.79;90.47;100649.03;5071476;28;20103;-63
2021/11/27 06:41:06;;;;;;;1.98;1.67;;;;;;;-15.75;90.71;100650.88;5071559;28;20131;-64
2021/11/27 06:43:33;;;;;;;4.35;2.63;;;;;;;-15.57;89.51;100640.13;5071401;28;20080;-64
2021/11/27 06:46:01;;;;;;;;;;;;;;;-15.80;90.08;100645.66;5071875;28;20063;-65
2021/11/27 06:48:28;;;;;;;2.15;1.73;;;;;;;-15.90;90.74;100649.38;5071693;28;19970;-65
2021/11/27 06:50:55;;;;;;;1.77;1.67;;;;;;;-15.94;90.27;100654.97;5071516;28;20071;-65
2021/11/27 06:53:23;;;;;;;2.30;2.10;;;;;;;-15.99;90.86;100658.00;5071615;28;20143;-65
2021/11/27 06:55:50;;;;;;;2.85;2.10;;;;;;;-15.99;90.73;100663.00;5071435;28;20068;-65
2021/11/27 06:58:18;;;;;;;4.72;2.10;;;;;;;-16.07;89.88;100665.09;5071800;28;20155;-64
2021/11/27 07:00:45;;;;;;;3.42;2.67;;;;;;;-16.07;90.59;100663.47;5071663;28;20164;-65
2021/11/27 07:03:12;;;;;;;1.88;1.77;;;;;;;-16.08;90.65;100666.75;5072018;28;20135;-65
2021/11/27 07:05:39;;;;;;;4.75;2.55;;;;;;;-16.25;90.47;100675.00;5071224;28;20083;-65
2021/11/27 07:08:07;;;;;;;1.40;1.30;;;;;;;-16.13;90.83;100669.75;5071936;28;20045;-64
2021/11/27 07:10:34;;;;;;;5.10;2.28;;;;;;;-15.75;87.65;100673.31;5071283;28;20040;-64
2021/11/27 07:13:01;;;;;;;2.33;2.13;;;;;;;-15.89;87.17;100685.97;5071386;28;20091;-64
2021/11/27 07:15:30;;;;;;;2.13;1.92;;;;;;;-15.90;86.32;100678.41;5071066;28;20200;-68
2021/11/27 07:17:57;;;;;;;2.10;1.67;;;;;;;-16.26;86.21;100680.75;5070194;28;20091;-65
2021/11/27 07:20:24;;;;;;;2.45;2.22;;;;;;;-16.40;85.25;100687.50;5071049;28;20078;-65
2021/11/27 07:22:51;;;;;;;2.58;2.05;;;;;;;-16.43;84.87;100699.81;5071429;28;20053;-64
2021/11/27 07:25:17;;;;;;;;;;;;;;;-16.49;84.90;100700.34;5074685;28;20144;-64
2021/11/27 07:27:44;;;;;;;;;;;;;;;-16.49;85.93;100707.81;5075538;28;20051;-64
2021/11/27 07:30:11;;;;;;;1.85;1.75;;;;;;;-16.60;84.81;100716.34;5074940;28;19963;-67
2021/11/27 07:32:39;;;;;;;;;;;;;;;-16.84;86.14;100705.97;5075176;28;20079;-67
2021/11/27 07:35:07;;;;;;;2.10;1.50;;;;;;;-16.97;86.16;100706.94;5074792;28;19947;-67
2021/11/27 07:37:35;;;;;;;1.30;1.30;;;;;;;-16.98;86.18;100709.34;5074372;28;20086;-66
2021/11/27 07:40:01;;;;;;;;;;;;;;;-17.01;87.21;100704.19;5074988;28;20125;-66
2021/11/27 07:42:28;;;;;;;;;;;;;;;-17.14;87.55;100713.47;5075289;28;20038;-66
2021/11/27 07:44:55;;;;;;;;;;;;;;;-16.99;87.18;100710.13;5074909;28;19956;-66
2021/11/27 07:47:21;;;;;;;6.10;1.67;;;;;;;-17.07;86.61;100712.19;5074437;28;19927;-66
2021/11/27 07:49:50;;;;;;;1.65;1.40;;;;;;;-17.02;87.43;100709.97;5074725;28;20494;-66
2021/11/27 07:52:21;;;;;;;2.80;2.05;;;;;;;-17.06;89.63;100721.34;5074584;28;20394;-67
2021/11/27 07:54:48;;;;;;;1.75;1.65;;;;;;;-16.98;89.45;100716.81;5074282;28;20084;-66
2021/11/27 07:57:15;;;;;;;2.70;2.35;;;;;;;-16.87;89.10;100729.81;5074302;28;20076;-67
2021/11/27 07:59:42;;;;;;;;;;;;;;;-16.71;89.26;100724.88;5074710;28;20087;-67
2021/11/27 08:02:09;;;;;;;1.63;1.30;;;;;;;-16.72;87.01;100728.13;5074179;28;20382;-66
2021/11/27 08:04:36;;;;;;;1.58;1.48;;;;;;;-16.41;87.49;100729.75;5073949;28;20569;-66
2021/11/27 08:07:04;;;;;;;2.03;1.33;;;;;;;-16.32;87.50;100740.22;5074343;28;20139;-66
2021/11/27 08:09:31;;;;;;;1.30;1.20;;;;;;;-16.16;85.58;100745.22;5073729;28;20147;-67
2021/11/27 08:11:58;;;;;;;1.63;1.52;;;;;;;-16.30;86.25;100741.19;5073805;28;20135;-67
2021/11/27 08:14:31;;;;;;;4.18;2.20;;;;;;;-16.21;86.29;100748.25;5073702;28;20581;-67
2021/11/27 08:17:00;;;;;;;3.40;2.85;;;;;;;-16.17;84.67;100758.47;5073913;28;20076;-67
2021/11/27 08:19:27;;;;;;;1.90;1.80;;;;;;;-16.14;84.31;100763.59;5073605;28;20045;-66
2021/11/27 08:21:54;;;;;;;1.80;1.70;;;;;;;-16.08;85.81;100763.94;5073535;28;20135;-66
2021/11/27 08:24:24;;;;;;;1.42;1.33;;;;;;;-16.17;86.97;100768.44;5073551;28;20560;-66
2021/11/27 08:26:52;;;;;;;2.05;1.75;;;;;;;-15.96;86.82;100768.69;5073656;28;20056;-66
2021/11/27 08:29:18;;;;;;;;;;;;;;;-15.83;87.36;100756.06;5074084;28;20076;-66
2021/11/27 08:31:46;;;;;;;1.88;1.77;;;;;;;-15.89;87.71;100762.41;5073825;28;19920;-67
2021/11/27 08:34:13;;;;;;;1.77;1.67;;;;;;;-15.70;87.88;100760.03;5073462;28;20052;-66
2021/11/27 08:36:41;;;;;;;1.55;1.45;;;;;;;-15.64;86.75;100762.84;5073213;28;20152;-66
2021/11/27 08:39:08;;;;;;;1.50;1.40;;;;;;;-15.72;88.12;100763.25;5073461;28;20055;-66
2021/11/27 08:41:36;;;;;;;;;;;;;;;-15.71;88.53;100773.31;5073620;28;20087;-66
2021/11/27 08:44:03;;;;;;;1.30;1.20;;;;;;;-15.50;88.08;100768.50;5073222;28;19963;-66
2021/11/27 08:46:30;;;;;;;;;;;;;;;-15.57;87.74;100771.47;5073966;28;20127;-67
2021/11/27 08:48:57;;;;;;;1.70;1.63;;;;;;;-15.60;87.71;100766.31;5073293;28;19970;-67
2021/11/27 08:51:24;;;;;;;1.88;1.77;;;;;;;-15.61;88.57;100777.09;5072830;28;20053;-64
2021/11/27 08:53:51;;;;;;;2.42;1.60;;;;;;;-15.37;88.74;100765.81;5073031;28;20154;-64
2021/11/27 08:56:18;;;;;;;2.65;1.90;;;;;;;-15.31;87.54;100770.25;5073073;28;20076;-64
2021/11/27 08:58:47;;;;;;;1.00;1.00;;;;;;;-15.20;88.46;100773.31;5072935;28;20094;-65
2021/11/27 09:01:14;;;;;;;2.38;2.15;;;;;;;-15.06;86.84;100777.31;5073152;28;20059;-64
2021/11/27 09:03:42;;;;;;;2.95;1.95;;;;;;;-15.14;87.53;100783.56;5072730;28;20052;-70
2021/11/27 09:06:10;;;;;;;2.42;1.70;;;;;;;-15.10;86.35;100780.47;5072808;28;20474;-66
2021/11/27 09:08:38;;;;;;;1.92;1.67;;;;;;;-15.27;86.00;100789.59;5072642;28;20589;-67
2021/11/27 09:11:08;;;;;;;1.35;1.30;;;;;;;-15.06;85.50;100786.44;5073023;28;20048;-65
2021/11/27 09:13:35;;;;;;;1.50;1.40;;;;;;;-14.99;85.88;100786.81;5073065;28;20082;-65
2021/11/27 09:16:04;;;;;;;1.98;1.75;;;;;;;-14.92;86.12;100786.34;5072440;28;20068;-67
2021/11/27 09:18:32;;;;;;;2.25;1.65;;;;;;;-14.85;86.90;100789.09;5072460;28;20044;-67
2021/11/27 09:20:59;;;;;;;1.75;1.65;;;;;;;-14.75;86.64;100783.75;5072820;28;20053;-67
2021/11/27 09:23:26;;;;;;;;;;;;;;;-14.92;88.11;100792.97;5072777;28;20566;-67
2021/11/27 09:25:52;;;;;;;;;;;;;;;-14.77;87.50;100791.22;5072952;28;20413;-67
2021/11/27 09:28:20;;;;;;;1.38;1.27;;;;;;;-14.61;87.75;100787.78;5072530;28;20362;-67
2021/11/27 09:30:47;;;;;;;1.67;1.52;;;;;;;-14.62;88.23;100781.06;5072415;28;20242;-65
2021/11/27 09:33:15;;;;;;;1.20;1.20;;;;;;;-14.37;87.45;100783.00;5072688;28;20150;-66
2021/11/27 09:35:47;;;;;;;2.00;1.90;;;;;;;-14.28;87.63;100785.94;5072044;28;20598;-66
2021/11/27 09:38:14;;;;;;;2.90;2.22;;;;;;;-14.44;87.75;100786.00;5072434;28;20453;-66
2021/11/27 09:40:44;;;;;;;2.28;2.10;;;;;;;-14.54;88.70;100786.41;5071950;28;20062;-64
2021/11/27 09:43:11;;;;;;;2.88;2.00;;;;;;;-14.45;88.80;100783.47;5072187;28;20144;-65
2021/11/27 09:45:39;;;;;;;3.08;2.33;;;;;;;-14.39;88.43;100794.56;5072041;28;20048;-65
2021/11/27 09:48:10;;;;;;;3.05;2.15;;;;;;;-14.35;88.51;100801.44;5071714;28;20486;-65
2021/11/27 09:50:39;;;;;;;2.65;1.92;;;;;;;-13.85;87.12;100807.84;5072192;28;20052;-66
2021/11/27 09:53:07;;;;;;;1.63;1.52;;;;;;;-13.84;87.30;100797.06;5072050;28;20401;-66
2021/11/27 09:55:34;;;;;;;2.58;1.92;;;;;;;-13.83;87.19;100797.91;5071897;28;20087;-67
2021/11/27 09:58:01;;;;;;;4.47;2.85;;;;;;;-13.81;86.88;100801.34;5071997;28;20140;-69
2021/11/27 10:00:28;;;;;;;1.48;1.38;;;;;;;-13.78;86.75;100806.47;5072143;28;20076;-69
2021/11/27 10:02:58;;;;;;;2.45;2.25;;;;;;;-13.84;86.54;100799.56;5071993;28;20076;-70
2021/11/27 10:05:25;;;;;;;2.80;2.08;;;;;;;-13.67;86.85;100807.81;5071772;28;20139;-69
2021/11/27 10:07:56;;;;;;;3.90;1.85;;;;;;;-13.71;86.78;100797.63;5072249;28;20056;-70
2021/11/27 10:10:23;;;;;;;1.17;1.15;;;;;;;-13.68;87.49;100802.75;5072008;28;20076;-70
2021/11/27 10:12:50;;;;;;;2.00;1.73;;;;;;;-13.55;86.72;100806.63;5072234;28;20055;-69
2021/11/27 10:15:17;;;;;;;3.28;2.17;;;;;;;-13.62;86.49;100808.00;5071911;28;20056;-69
2021/11/27 10:17:44;;;;;;;1.67;1.58;;;;;;;-13.58;86.33;100809.00;5071544;28;20048;-70
2021/11/27 10:20:11;;;;;;;;;;;;;;;-13.72;86.53;100809.25;5072200;28;20574;-70
2021/11/27 10:22:47;;;;;;;1.75;1.60;;;;;;;-13.79;86.46;100811.41;5071771;28;20011;-70
2021/11/27 10:25:27;;;;;;;2.08;1.50;;;;;;;-13.82;86.53;100818.00;5071928;28;20135;-68
2021/11/27 10:27:54;;;;;;;2.50;1.38;;;;;;;-13.89;86.72;100811.03;5071875;28;20153;-68
2021/11/27 10:30:21;;;;;;;2.35;2.15;;;;;;;-14.04;87.00;100817.84;5071543;28;20048;-68
2021/11/27 10:32:49;;;;;;;;;;;;;;;-14.11;87.09;100818.34;5072463;28;20044;-67
2021/11/27 10:35:19;;;;;;;1.10;1.10;;;;;;;-13.91;86.48;100822.59;5072014;28;19952;-67
2021/11/27 10:37:47;;;;;;;1.50;1.40;;;;;;;-14.04;87.33;100836.19;5071956;28;20052;-68
2021/11/27 10:40:18;;;;;;;2.65;1.95;;;;;;;-13.96;87.30;100834.03;5071643;28;20387;-69
2021/11/27 10:42:49;;;;;;;3.97;3.00;;;;;;;-13.89;87.24;100831.03;5071417;28;20128;-68
2021/11/27 10:45:18;;;;;;;3.53;2.40;;;;;;;-14.09;88.14;100837.63;5071568;28;20076;-68
2021/11/27 10:47:46;;;;;;;3.47;2.65;;;;;;;-13.95;87.66;100830.75;5071591;28;20376;-69
2021/11/27 10:50:18;;;;;;;3.85;2.47;;;;;;;-13.69;87.04;100836.03;5071483;28;20504;-69
2021/11/27 10:52:45;;;;;;;2.08;1.88;;;;;;;-13.62;87.50;100833.88;5071567;28;20049;-69
2021/11/27 10:55:19;;;;;;;;;;;;;;;-13.59;86.48;100843.16;5071934;28;20564;-68
2021/11/27 10:57:48;;;;;;;1.77;1.67;;;;;;;-13.68;87.42;100850.28;5071770;28;19920;-68
2021/11/27 11:00:33;;;;;;;7.32;1.60;;;;;;;-13.68;87.87;100847.78;5074899;28;20139;-68
2021/11/27 11:03:01;;;;;;;3.15;1.80;;;;;;;-13.51;87.25;100851.88;5075247;28;20052;-68
2021/11/27 11:05:34;;;;;;;3.78;2.25;;;;;;;-13.60;87.79;100839.81;5075239;28;20049;-68
2021/11/27 11:08:01;;;;;;;3.20;2.65;;;;;;;-13.60;87.65;100844.81;5075314;28;20431;-68
2021/11/27 11:10:31;;;;;;;4.15;1.88;;;;;;;-13.54;86.95;100844.22;5074711;28;20080;-68
2021/11/27 11:13:02;;;;;;;2.03;1.55;;;;;;;-13.49;87.22;100851.94;5075174;28;20478;-68
2021/11/27 11:15:31;;;;;;;2.58;2.03;;;;;;;-13.64;87.93;100843.00;5074807;28;20466;-69
2021/11/27 11:18:13;;;;;;;4.07;2.10;;;;;;;-13.50;88.53;100848.59;5075274;28;20132;-69
2021/11/27 11:20:44;;;;;;;2.63;2.42;;;;;;;-13.49;88.12;100846.94;5074854;28;20144;-69
2021/11/27 11:23:14;;;;;;;2.25;2.05;;;;;;;-13.49;88.79;100850.28;5075043;28;20131;-68
2021/11/27 11:25:54;;;;;;;3.13;2.83;;;;;;;-13.22;87.98;100862.25;5074821;28;20075;-68
2021/11/27 11:28:24;;;;;;;1.75;1.65;;;;;;;-13.22;87.19;100857.25;5074860;28;20044;-68